sensor_id;sensor_type;location;lat;lon;timestamp;temperature;humidity
1005;DHT22;491;53.480;10.174;2022-08-19T00:00:12;19.50;99.90
1005;DHT22;491;53.480;10.174;2022-08-19T00:02:40;19.50;99.90
1005;DHT22;491;53.480;10.174;2022-08-19T00:05:08;19.40;99.90
1005;DHT22;491;53.480;10.174;2022-08-19T00:07:34;19.40;99.90
1005;DHT22;491;53.480;10.174;2022-08-19T00:09:59;19.40;99.90
1005;DHT22;491;53.480;10.174;2022-08-19T00:12:25;19.50;99.90
1005;DHT22;491;53.480;10.174;2022-08-19T00:14:50;19.50;99.90
1005;DHT22;491;53.480;10.174;2022-08-19T00:17:16;19.50;99.90
1005;DHT22;491;53.480;10.174;2022-08-19T00:19:41;19.40;99.90
1005;DHT22;491;53.480;10.174;2022-08-19T00:22:07;19.40;99.90
1005;DHT22;491;53.480;10.174;2022-08-19T00:24:34;19.40;99.90
1005;DHT22;491;53.480;10.174;2022-08-19T00:27:00;19.50;99.90
1005;DHT22;491;53.480;10.174;2022-08-19T00:29:27;19.40;99.90
1005;DHT22;491;53.480;10.174;2022-08-19T00:31:54;19.40;99.90
1005;DHT22;491;53.480;10.174;2022-08-19T00:34:22;19.40;99.90
1005;DHT22;491;53.480;10.174;2022-08-19T00:36:51;19.40;99.90
1005;DHT22;491;53.480;10.174;2022-08-19T00:39:16;19.40;99.90
1005;DHT22;491;53.480;10.174;2022-08-19T00:41:44;19.40;99.90
1005;DHT22;491;53.480;10.174;2022-08-19T00:46:47;19.40;99.90
1005;DHT22;491;53.480;10.174;2022-08-19T00:49:20;19.40;99.90
1005;DHT22;491;53.480;10.174;2022-08-19T00:51:51;19.40;99.90
1005;DHT22;491;53.480;10.174;2022-08-19T00:54:19;19.40;99.90
1005;DHT22;491;53.480;10.174;2022-08-19T00:56:45;19.40;99.90
1005;DHT22;491;53.480;10.174;2022-08-19T00:59:12;19.40;99.90
1005;DHT22;491;53.480;10.174;2022-08-19T01:01:39;19.40;99.90
1005;DHT22;491;53.480;10.174;2022-08-19T01:04:06;19.40;99.90
1005;DHT22;491;53.480;10.174;2022-08-19T01:06:32;19.40;99.90
1005;DHT22;491;53.480;10.174;2022-08-19T01:08:59;19.40;99.90
1005;DHT22;491;53.480;10.174;2022-08-19T01:11:26;19.40;99.90
1005;DHT22;491;53.480;10.174;2022-08-19T01:13:53;19.40;99.90
1005;DHT22;491;53.480;10.174;2022-08-19T01:16:22;19.40;99.90
1005;DHT22;491;53.480;10.174;2022-08-19T01:18:49;19.40;99.90
1005;DHT22;491;53.480;10.174;2022-08-19T01:21:40;19.40;99.90
1005;DHT22;491;53.480;10.174;2022-08-19T01:24:07;19.40;99.90
1005;DHT22;491;53.480;10.174;2022-08-19T01:26:38;19.50;99.90
1005;DHT22;491;53.480;10.174;2022-08-19T01:29:07;19.50;99.90
1005;DHT22;491;53.480;10.174;2022-08-19T01:31:33;19.50;99.90
1005;DHT22;491;53.480;10.174;2022-08-19T01:34:01;19.50;99.90
1005;DHT22;491;53.480;10.174;2022-08-19T01:36:46;19.40;99.90
1005;DHT22;491;53.480;10.174;2022-08-19T01:39:22;19.50;99.90
1005;DHT22;491;53.480;10.174;2022-08-19T01:41:48;19.50;99.90
1005;DHT22;491;53.480;10.174;2022-08-19T01:44:15;19.50;99.90
1005;DHT22;491;53.480;10.174;2022-08-19T01:46:42;19.50;99.90
1005;DHT22;491;53.480;10.174;2022-08-19T01:49:09;19.50;99.90
1005;DHT22;491;53.480;10.174;2022-08-19T01:51:35;19.50;99.90
1005;DHT22;491;53.480;10.174;2022-08-19T01:54:01;19.50;99.90
1005;DHT22;491;53.480;10.174;2022-08-19T01:56:27;19.50;99.90
1005;DHT22;491;53.480;10.174;2022-08-19T01:58:59;19.40;99.90
1005;DHT22;491;53.480;10.174;2022-08-19T02:01:25;19.40;99.90
1005;DHT22;491;53.480;10.174;2022-08-19T02:03:51;19.40;99.90
1005;DHT22;491;53.480;10.174;2022-08-19T02:06:18;19.30;99.90
1005;DHT22;491;53.480;10.174;2022-08-19T02:08:44;19.30;99.90
1005;DHT22;491;53.480;10.174;2022-08-19T02:11:22;19.30;99.90
1005;DHT22;491;53.480;10.174;2022-08-19T02:13:48;19.20;99.90
1005;DHT22;491;53.480;10.174;2022-08-19T02:16:15;19.20;99.90
1005;DHT22;491;53.480;10.174;2022-08-19T02:18:41;19.20;99.90
1005;DHT22;491;53.480;10.174;2022-08-19T02:21:06;19.10;99.90
1005;DHT22;491;53.480;10.174;2022-08-19T02:23:32;19.10;99.90
1005;DHT22;491;53.480;10.174;2022-08-19T02:25:57;19.10;99.90
1005;DHT22;491;53.480;10.174;2022-08-19T02:28:23;19.10;99.90
1005;DHT22;491;53.480;10.174;2022-08-19T02:30:49;19.20;99.90
1005;DHT22;491;53.480;10.174;2022-08-19T02:33:15;19.20;99.90
1005;DHT22;491;53.480;10.174;2022-08-19T02:35:42;19.20;99.90
1005;DHT22;491;53.480;10.174;2022-08-19T02:38:08;19.20;99.90
1005;DHT22;491;53.480;10.174;2022-08-19T02:41:03;19.20;99.90
1005;DHT22;491;53.480;10.174;2022-08-19T02:43:30;19.20;99.90
1005;DHT22;491;53.480;10.174;2022-08-19T02:45:59;19.20;99.90
1005;DHT22;491;53.480;10.174;2022-08-19T02:48:25;19.20;99.90
1005;DHT22;491;53.480;10.174;2022-08-19T02:50:52;19.30;99.90
1005;DHT22;491;53.480;10.174;2022-08-19T02:53:25;19.30;99.90
1005;DHT22;491;53.480;10.174;2022-08-19T02:55:52;19.30;99.90
1005;DHT22;491;53.480;10.174;2022-08-19T02:58:18;19.30;99.90
1005;DHT22;491;53.480;10.174;2022-08-19T03:00:47;19.30;99.90
1005;DHT22;491;53.480;10.174;2022-08-19T03:03:13;19.30;99.90
1005;DHT22;491;53.480;10.174;2022-08-19T03:05:39;19.30;99.90
1005;DHT22;491;53.480;10.174;2022-08-19T03:08:05;19.30;99.90
1005;DHT22;491;53.480;10.174;2022-08-19T03:10:31;19.30;99.90
1005;DHT22;491;53.480;10.174;2022-08-19T03:12:57;19.40;99.90
1005;DHT22;491;53.480;10.174;2022-08-19T03:15:22;19.30;99.90
1005;DHT22;491;53.480;10.174;2022-08-19T03:17:48;19.30;99.90
1005;DHT22;491;53.480;10.174;2022-08-19T03:20:16;19.30;99.90
1005;DHT22;491;53.480;10.174;2022-08-19T03:22:42;19.40;99.90
1005;DHT22;491;53.480;10.174;2022-08-19T03:25:07;19.40;99.90
1005;DHT22;491;53.480;10.174;2022-08-19T03:27:33;19.30;99.90
1005;DHT22;491;53.480;10.174;2022-08-19T03:29:58;19.20;99.90
1005;DHT22;491;53.480;10.174;2022-08-19T03:32:24;19.20;99.90
1005;DHT22;491;53.480;10.174;2022-08-19T03:34:50;19.20;99.90
1005;DHT22;491;53.480;10.174;2022-08-19T03:37:16;19.20;99.90
1005;DHT22;491;53.480;10.174;2022-08-19T03:39:41;19.20;99.90
1005;DHT22;491;53.480;10.174;2022-08-19T03:42:10;19.20;99.90
1005;DHT22;491;53.480;10.174;2022-08-19T03:44:37;19.20;99.90
1005;DHT22;491;53.480;10.174;2022-08-19T03:47:03;19.30;99.90
1005;DHT22;491;53.480;10.174;2022-08-19T03:49:30;19.20;99.90
1005;DHT22;491;53.480;10.174;2022-08-19T03:52:01;19.20;99.90
1005;DHT22;491;53.480;10.174;2022-08-19T03:54:28;19.20;99.90
1005;DHT22;491;53.480;10.174;2022-08-19T03:56:57;19.20;99.90
1005;DHT22;491;53.480;10.174;2022-08-19T03:59:29;19.20;99.90
1005;DHT22;491;53.480;10.174;2022-08-19T04:01:56;19.20;99.90
1005;DHT22;491;53.480;10.174;2022-08-19T04:04:23;19.30;99.90
1005;DHT22;491;53.480;10.174;2022-08-19T04:06:49;19.20;99.90
1005;DHT22;491;53.480;10.174;2022-08-19T04:09:16;19.10;99.90
1005;DHT22;491;53.480;10.174;2022-08-19T04:11:54;19.20;99.90
1005;DHT22;491;53.480;10.174;2022-08-19T04:14:22;19.10;99.90
1005;DHT22;491;53.480;10.174;2022-08-19T04:16:50;19.10;99.90
1005;DHT22;491;53.480;10.174;2022-08-19T04:19:22;19.10;99.90
1005;DHT22;491;53.480;10.174;2022-08-19T04:21:50;19.10;99.90
1005;DHT22;491;53.480;10.174;2022-08-19T04:24:16;19.10;99.90
1005;DHT22;491;53.480;10.174;2022-08-19T04:26:41;19.10;99.90
1005;DHT22;491;53.480;10.174;2022-08-19T04:29:10;19.10;99.90
1005;DHT22;491;53.480;10.174;2022-08-19T04:31:36;19.10;99.90
1005;DHT22;491;53.480;10.174;2022-08-19T04:34:06;19.10;99.90
1005;DHT22;491;53.480;10.174;2022-08-19T04:36:36;19.10;99.90
1005;DHT22;491;53.480;10.174;2022-08-19T04:39:06;19.60;99.90
1005;DHT22;491;53.480;10.174;2022-08-19T04:41:32;19.90;99.90
1005;DHT22;491;53.480;10.174;2022-08-19T04:44:17;20.10;99.90
1005;DHT22;491;53.480;10.174;2022-08-19T04:46:43;20.30;99.90
1005;DHT22;491;53.480;10.174;2022-08-19T04:49:09;20.20;99.90
1005;DHT22;491;53.480;10.174;2022-08-19T04:51:35;20.30;99.90
1005;DHT22;491;53.480;10.174;2022-08-19T04:54:03;20.40;99.90
1005;DHT22;491;53.480;10.174;2022-08-19T04:56:28;20.40;99.90
1005;DHT22;491;53.480;10.174;2022-08-19T04:58:55;20.10;99.90
1005;DHT22;491;53.480;10.174;2022-08-19T05:01:24;20.30;99.90
1005;DHT22;491;53.480;10.174;2022-08-19T05:03:51;20.20;99.90
1005;DHT22;491;53.480;10.174;2022-08-19T05:06:19;20.20;99.90
1005;DHT22;491;53.480;10.174;2022-08-19T05:08:48;20.00;99.90
1005;DHT22;491;53.480;10.174;2022-08-19T05:11:19;20.00;99.90
1005;DHT22;491;53.480;10.174;2022-08-19T05:13:48;20.00;99.90
1005;DHT22;491;53.480;10.174;2022-08-19T05:16:17;19.90;99.90
1005;DHT22;491;53.480;10.174;2022-08-19T05:18:43;19.90;99.90
1005;DHT22;491;53.480;10.174;2022-08-19T05:21:29;20.00;99.90
1005;DHT22;491;53.480;10.174;2022-08-19T05:24:14;19.70;99.90
1005;DHT22;491;53.480;10.174;2022-08-19T05:26:42;19.20;99.90
1005;DHT22;491;53.480;10.174;2022-08-19T05:29:08;19.10;99.90
1005;DHT22;491;53.480;10.174;2022-08-19T05:31:35;19.00;99.90
1005;DHT22;491;53.480;10.174;2022-08-19T05:34:01;18.90;99.90
1005;DHT22;491;53.480;10.174;2022-08-19T05:36:34;18.80;99.90
1005;DHT22;491;53.480;10.174;2022-08-19T05:39:02;18.80;99.90
1005;DHT22;491;53.480;10.174;2022-08-19T05:41:28;18.80;99.90
1005;DHT22;491;53.480;10.174;2022-08-19T05:43:55;18.80;99.90
1005;DHT22;491;53.480;10.174;2022-08-19T05:46:21;18.80;99.90
1005;DHT22;491;53.480;10.174;2022-08-19T05:48:47;18.80;99.90
1005;DHT22;491;53.480;10.174;2022-08-19T05:51:13;18.80;99.90
1005;DHT22;491;53.480;10.174;2022-08-19T05:53:39;18.80;99.90
1005;DHT22;491;53.480;10.174;2022-08-19T05:56:07;18.80;99.90
1005;DHT22;491;53.480;10.174;2022-08-19T05:58:33;18.80;99.90
1005;DHT22;491;53.480;10.174;2022-08-19T06:00:59;18.80;99.90
1005;DHT22;491;53.480;10.174;2022-08-19T06:03:30;18.80;99.90
1005;DHT22;491;53.480;10.174;2022-08-19T06:05:56;18.80;99.90
1005;DHT22;491;53.480;10.174;2022-08-19T06:08:21;18.90;99.90
1005;DHT22;491;53.480;10.174;2022-08-19T06:10:47;18.90;99.90
1005;DHT22;491;53.480;10.174;2022-08-19T06:13:12;18.90;99.90
1005;DHT22;491;53.480;10.174;2022-08-19T06:15:37;19.00;99.90
1005;DHT22;491;53.480;10.174;2022-08-19T06:18:03;18.90;99.90
1005;DHT22;491;53.480;10.174;2022-08-19T06:20:28;18.90;99.90
1005;DHT22;491;53.480;10.174;2022-08-19T06:22:54;19.00;99.90
1005;DHT22;491;53.480;10.174;2022-08-19T06:25:20;19.00;99.90
1005;DHT22;491;53.480;10.174;2022-08-19T06:27:46;19.00;99.90
1005;DHT22;491;53.480;10.174;2022-08-19T06:30:11;19.10;99.90
1005;DHT22;491;53.480;10.174;2022-08-19T06:32:37;19.10;99.90
1005;DHT22;491;53.480;10.174;2022-08-19T06:35:03;19.20;99.90
1005;DHT22;491;53.480;10.174;2022-08-19T06:37:29;19.10;99.90
1005;DHT22;491;53.480;10.174;2022-08-19T06:39:55;19.20;99.90
1005;DHT22;491;53.480;10.174;2022-08-19T06:42:20;19.20;99.90
1005;DHT22;491;53.480;10.174;2022-08-19T06:44:49;19.30;99.90
1005;DHT22;491;53.480;10.174;2022-08-19T06:47:20;19.20;99.90
1005;DHT22;491;53.480;10.174;2022-08-19T06:49:46;19.30;99.90
1005;DHT22;491;53.480;10.174;2022-08-19T06:52:12;19.30;99.90
1005;DHT22;491;53.480;10.174;2022-08-19T06:54:38;19.40;99.90
1005;DHT22;491;53.480;10.174;2022-08-19T06:57:05;19.40;99.90
1005;DHT22;491;53.480;10.174;2022-08-19T06:59:32;19.40;99.90
1005;DHT22;491;53.480;10.174;2022-08-19T07:02:00;19.40;99.90
1005;DHT22;491;53.480;10.174;2022-08-19T07:04:29;19.40;99.90
1005;DHT22;491;53.480;10.174;2022-08-19T07:07:03;19.40;99.90
1005;DHT22;491;53.480;10.174;2022-08-19T07:09:31;19.60;99.90
1005;DHT22;491;53.480;10.174;2022-08-19T07:11:57;19.80;99.90
1005;DHT22;491;53.480;10.174;2022-08-19T07:14:25;19.90;99.90
1005;DHT22;491;53.480;10.174;2022-08-19T07:16:54;19.90;99.90
1005;DHT22;491;53.480;10.174;2022-08-19T07:19:21;19.90;99.90
1005;DHT22;491;53.480;10.174;2022-08-19T07:21:49;20.00;99.90
1005;DHT22;491;53.480;10.174;2022-08-19T07:24:18;20.10;99.90
1005;DHT22;491;53.480;10.174;2022-08-19T07:26:45;20.10;99.90
1005;DHT22;491;53.480;10.174;2022-08-19T07:29:11;20.10;99.90
1005;DHT22;491;53.480;10.174;2022-08-19T07:31:37;20.10;99.90
1005;DHT22;491;53.480;10.174;2022-08-19T07:34:07;20.10;99.90
1005;DHT22;491;53.480;10.174;2022-08-19T07:36:36;20.00;99.90
1005;DHT22;491;53.480;10.174;2022-08-19T07:39:06;20.10;99.90
1005;DHT22;491;53.480;10.174;2022-08-19T07:41:32;20.30;99.90
1005;DHT22;491;53.480;10.174;2022-08-19T07:43:59;20.30;99.90
1005;DHT22;491;53.480;10.174;2022-08-19T07:46:30;20.20;99.90
1005;DHT22;491;53.480;10.174;2022-08-19T07:48:56;20.20;99.90
1005;DHT22;491;53.480;10.174;2022-08-19T07:51:22;20.20;99.90
1005;DHT22;491;53.480;10.174;2022-08-19T07:53:48;20.10;99.90
1005;DHT22;491;53.480;10.174;2022-08-19T07:56:18;20.10;99.90
1005;DHT22;491;53.480;10.174;2022-08-19T07:58:45;20.10;99.90
1005;DHT22;491;53.480;10.174;2022-08-19T08:01:16;20.20;99.90
1005;DHT22;491;53.480;10.174;2022-08-19T08:03:42;20.20;99.90
1005;DHT22;491;53.480;10.174;2022-08-19T08:06:26;20.10;99.90
1005;DHT22;491;53.480;10.174;2022-08-19T08:09:11;20.00;99.90
1005;DHT22;491;53.480;10.174;2022-08-19T08:11:42;20.00;99.90
1005;DHT22;491;53.480;10.174;2022-08-19T08:14:15;20.00;99.90
1005;DHT22;491;53.480;10.174;2022-08-19T08:16:41;20.00;99.90
1005;DHT22;491;53.480;10.174;2022-08-19T08:19:09;19.80;99.90
1005;DHT22;491;53.480;10.174;2022-08-19T08:21:35;19.80;99.90
1005;DHT22;491;53.480;10.174;2022-08-19T08:24:00;19.80;99.90
1005;DHT22;491;53.480;10.174;2022-08-19T08:26:26;19.80;99.90
1005;DHT22;491;53.480;10.174;2022-08-19T08:28:53;19.70;99.90
1005;DHT22;491;53.480;10.174;2022-08-19T08:31:19;19.80;99.90
1005;DHT22;491;53.480;10.174;2022-08-19T08:33:45;19.90;99.90
1005;DHT22;491;53.480;10.174;2022-08-19T08:36:12;19.80;99.90
1005;DHT22;491;53.480;10.174;2022-08-19T08:38:40;19.80;99.90
1005;DHT22;491;53.480;10.174;2022-08-19T08:44:17;19.90;99.90
1005;DHT22;491;53.480;10.174;2022-08-19T08:46:51;20.00;99.90
1005;DHT22;491;53.480;10.174;2022-08-19T08:49:51;20.00;99.90
1005;DHT22;491;53.480;10.174;2022-08-19T08:52:22;20.00;99.90
1005;DHT22;491;53.480;10.174;2022-08-19T08:54:51;20.00;99.90
1005;DHT22;491;53.480;10.174;2022-08-19T08:57:49;20.00;99.90
1005;DHT22;491;53.480;10.174;2022-08-19T09:00:37;19.90;99.90
1005;DHT22;491;53.480;10.174;2022-08-19T09:03:07;19.90;99.90
1005;DHT22;491;53.480;10.174;2022-08-19T09:05:59;19.90;99.90
1005;DHT22;491;53.480;10.174;2022-08-19T09:11:19;19.80;99.90
1005;DHT22;491;53.480;10.174;2022-08-19T09:14:09;19.90;99.90
1005;DHT22;491;53.480;10.174;2022-08-19T09:16:37;19.90;99.90
1005;DHT22;491;53.480;10.174;2022-08-19T09:19:09;20.00;99.90
1005;DHT22;491;53.480;10.174;2022-08-19T09:21:35;19.90;99.90
1005;DHT22;491;53.480;10.174;2022-08-19T09:24:02;19.90;99.90
1005;DHT22;491;53.480;10.174;2022-08-19T09:26:29;20.00;99.90
1005;DHT22;491;53.480;10.174;2022-08-19T09:28:55;20.00;99.90
1005;DHT22;491;53.480;10.174;2022-08-19T09:31:24;20.00;99.90
1005;DHT22;491;53.480;10.174;2022-08-19T09:33:51;20.00;99.90
1005;DHT22;491;53.480;10.174;2022-08-19T09:36:19;20.00;99.90
1005;DHT22;491;53.480;10.174;2022-08-19T09:38:45;20.00;99.90
1005;DHT22;491;53.480;10.174;2022-08-19T09:41:15;20.00;99.90
1005;DHT22;491;53.480;10.174;2022-08-19T09:43:42;20.00;99.90
1005;DHT22;491;53.480;10.174;2022-08-19T09:46:09;20.10;99.90
1005;DHT22;491;53.480;10.174;2022-08-19T09:48:36;20.10;99.90
1005;DHT22;491;53.480;10.174;2022-08-19T09:51:10;20.20;99.90
1005;DHT22;491;53.480;10.174;2022-08-19T09:53:37;20.20;99.90
1005;DHT22;491;53.480;10.174;2022-08-19T09:56:04;20.20;99.90
1005;DHT22;491;53.480;10.174;2022-08-19T09:58:32;20.30;99.90
1005;DHT22;491;53.480;10.174;2022-08-19T10:00:59;20.30;99.90
1005;DHT22;491;53.480;10.174;2022-08-19T10:03:26;20.30;99.90
1005;DHT22;491;53.480;10.174;2022-08-19T10:05:52;20.40;99.90
1005;DHT22;491;53.480;10.174;2022-08-19T10:08:29;20.40;99.90
1005;DHT22;491;53.480;10.174;2022-08-19T10:10:56;20.40;99.90
1005;DHT22;491;53.480;10.174;2022-08-19T10:13:24;20.40;99.90
1005;DHT22;491;53.480;10.174;2022-08-19T10:15:53;20.40;99.90
1005;DHT22;491;53.480;10.174;2022-08-19T10:18:21;20.30;99.90
1005;DHT22;491;53.480;10.174;2022-08-19T10:20:47;20.30;99.90
1005;DHT22;491;53.480;10.174;2022-08-19T10:23:14;20.30;99.90
1005;DHT22;491;53.480;10.174;2022-08-19T10:25:40;20.20;99.90
1005;DHT22;491;53.480;10.174;2022-08-19T10:28:06;20.20;99.90
1005;DHT22;491;53.480;10.174;2022-08-19T10:30:33;20.30;99.90
1005;DHT22;491;53.480;10.174;2022-08-19T10:32:58;20.30;99.90
1005;DHT22;491;53.480;10.174;2022-08-19T10:35:24;20.30;99.90
1005;DHT22;491;53.480;10.174;2022-08-19T10:37:52;20.30;99.90
1005;DHT22;491;53.480;10.174;2022-08-19T10:40:18;20.40;99.90
1005;DHT22;491;53.480;10.174;2022-08-19T10:42:44;20.40;99.90
1005;DHT22;491;53.480;10.174;2022-08-19T10:45:10;20.40;99.90
1005;DHT22;491;53.480;10.174;2022-08-19T10:47:38;20.40;99.90
1005;DHT22;491;53.480;10.174;2022-08-19T10:50:04;20.40;99.90
1005;DHT22;491;53.480;10.174;2022-08-19T10:52:49;20.60;99.90
1005;DHT22;491;53.480;10.174;2022-08-19T10:55:16;20.70;99.90
1005;DHT22;491;53.480;10.174;2022-08-19T10:58:03;20.80;99.90
1005;DHT22;491;53.480;10.174;2022-08-19T11:00:29;20.70;99.90
1005;DHT22;491;53.480;10.174;2022-08-19T11:03:14;20.70;99.90
1005;DHT22;491;53.480;10.174;2022-08-19T11:05:40;20.80;99.90
1005;DHT22;491;53.480;10.174;2022-08-19T11:08:07;20.90;99.90
1005;DHT22;491;53.480;10.174;2022-08-19T11:10:37;20.90;99.90
1005;DHT22;491;53.480;10.174;2022-08-19T11:13:02;20.80;99.90
1005;DHT22;491;53.480;10.174;2022-08-19T11:15:28;20.70;99.90
1005;DHT22;491;53.480;10.174;2022-08-19T11:17:54;20.60;99.90
1005;DHT22;491;53.480;10.174;2022-08-19T11:20:21;20.60;99.90
1005;DHT22;491;53.480;10.174;2022-08-19T11:22:48;20.60;99.90
1005;DHT22;491;53.480;10.174;2022-08-19T11:25:13;20.70;99.90
1005;DHT22;491;53.480;10.174;2022-08-19T11:27:42;20.70;99.90
1005;DHT22;491;53.480;10.174;2022-08-19T11:30:10;20.70;99.90
1005;DHT22;491;53.480;10.174;2022-08-19T11:32:36;20.70;99.90
1005;DHT22;491;53.480;10.174;2022-08-19T11:35:01;20.70;99.90
1005;DHT22;491;53.480;10.174;2022-08-19T11:37:26;20.80;99.90
1005;DHT22;491;53.480;10.174;2022-08-19T11:39:52;21.00;99.90
1005;DHT22;491;53.480;10.174;2022-08-19T11:42:18;21.00;99.90
1005;DHT22;491;53.480;10.174;2022-08-19T11:45:02;21.00;99.90
1005;DHT22;491;53.480;10.174;2022-08-19T11:47:29;20.90;99.90
1005;DHT22;491;53.480;10.174;2022-08-19T11:49:55;20.90;99.90
1005;DHT22;491;53.480;10.174;2022-08-19T11:52:21;21.00;99.90
1005;DHT22;491;53.480;10.174;2022-08-19T11:54:47;21.00;99.90
1005;DHT22;491;53.480;10.174;2022-08-19T11:57:12;21.00;99.90
1005;DHT22;491;53.480;10.174;2022-08-19T11:59:40;21.10;99.90
1005;DHT22;491;53.480;10.174;2022-08-19T12:02:05;21.10;99.90
1005;DHT22;491;53.480;10.174;2022-08-19T12:04:31;21.30;99.90
1005;DHT22;491;53.480;10.174;2022-08-19T12:06:56;21.50;99.90
1005;DHT22;491;53.480;10.174;2022-08-19T12:09:22;21.60;99.90
1005;DHT22;491;53.480;10.174;2022-08-19T12:11:47;21.80;99.90
1005;DHT22;491;53.480;10.174;2022-08-19T12:14:13;22.00;99.90
1005;DHT22;491;53.480;10.174;2022-08-19T12:16:39;22.00;99.90
1005;DHT22;491;53.480;10.174;2022-08-19T12:19:05;22.00;99.90
1005;DHT22;491;53.480;10.174;2022-08-19T12:21:33;21.90;99.90
1005;DHT22;491;53.480;10.174;2022-08-19T12:24:01;21.70;99.90
1005;DHT22;491;53.480;10.174;2022-08-19T12:26:28;21.60;99.90
1005;DHT22;491;53.480;10.174;2022-08-19T12:28:54;21.60;99.90
1005;DHT22;491;53.480;10.174;2022-08-19T12:31:20;21.60;99.90
1005;DHT22;491;53.480;10.174;2022-08-19T12:33:46;21.50;99.90
1005;DHT22;491;53.480;10.174;2022-08-19T12:36:13;21.50;99.90
1005;DHT22;491;53.480;10.174;2022-08-19T12:38:40;21.70;99.90
1005;DHT22;491;53.480;10.174;2022-08-19T12:41:06;21.80;99.90
1005;DHT22;491;53.480;10.174;2022-08-19T12:43:33;21.70;99.90
1005;DHT22;491;53.480;10.174;2022-08-19T12:46:00;21.80;99.90
1005;DHT22;491;53.480;10.174;2022-08-19T12:48:25;21.90;99.90
1005;DHT22;491;53.480;10.174;2022-08-19T12:50:51;22.10;99.90
1005;DHT22;491;53.480;10.174;2022-08-19T12:53:16;22.40;99.90
1005;DHT22;491;53.480;10.174;2022-08-19T12:55:42;22.70;99.90
1005;DHT22;491;53.480;10.174;2022-08-19T12:58:09;23.00;99.90
1005;DHT22;491;53.480;10.174;2022-08-19T13:00:35;23.40;99.90
1005;DHT22;491;53.480;10.174;2022-08-19T13:03:01;23.50;99.90
1005;DHT22;491;53.480;10.174;2022-08-19T13:05:29;23.50;99.90
1005;DHT22;491;53.480;10.174;2022-08-19T13:08:02;23.30;99.90
1005;DHT22;491;53.480;10.174;2022-08-19T13:10:33;23.30;99.90
1005;DHT22;491;53.480;10.174;2022-08-19T13:13:04;23.50;99.90
1005;DHT22;491;53.480;10.174;2022-08-19T13:15:34;23.80;99.90
1005;DHT22;491;53.480;10.174;2022-08-19T13:18:00;24.20;10.50
1005;DHT22;491;53.480;10.174;2022-08-19T13:20:26;24.20;1.00
1005;DHT22;491;53.480;10.174;2022-08-19T13:22:51;24.20;1.00
1005;DHT22;491;53.480;10.174;2022-08-19T13:25:18;24.30;1.00
1005;DHT22;491;53.480;10.174;2022-08-19T13:27:45;24.50;1.00
1005;DHT22;491;53.480;10.174;2022-08-19T13:30:14;24.70;1.00
1005;DHT22;491;53.480;10.174;2022-08-19T13:32:59;25.10;1.00
1005;DHT22;491;53.480;10.174;2022-08-19T13:35:38;25.20;1.00
1005;DHT22;491;53.480;10.174;2022-08-19T13:38:04;25.10;97.60
1005;DHT22;491;53.480;10.174;2022-08-19T13:40:31;25.30;1.00
1005;DHT22;491;53.480;10.174;2022-08-19T13:42:59;25.20;1.00
1005;DHT22;491;53.480;10.174;2022-08-19T13:45:27;24.90;1.00
1005;DHT22;491;53.480;10.174;2022-08-19T13:47:55;24.90;1.00
1005;DHT22;491;53.480;10.174;2022-08-19T13:50:24;24.80;1.00
1005;DHT22;491;53.480;10.174;2022-08-19T13:52:51;24.60;1.00
1005;DHT22;491;53.480;10.174;2022-08-19T13:55:17;24.40;1.00
1005;DHT22;491;53.480;10.174;2022-08-19T13:57:42;24.20;1.00
1005;DHT22;491;53.480;10.174;2022-08-19T14:00:15;24.10;99.90
1005;DHT22;491;53.480;10.174;2022-08-19T14:02:43;23.80;99.90
1005;DHT22;491;53.480;10.174;2022-08-19T14:05:12;23.70;17.80
1005;DHT22;491;53.480;10.174;2022-08-19T14:07:38;23.60;99.90
1005;DHT22;491;53.480;10.174;2022-08-19T14:10:05;23.50;99.90
1005;DHT22;491;53.480;10.174;2022-08-19T14:12:40;23.50;90.70
1005;DHT22;491;53.480;10.174;2022-08-19T14:15:08;23.60;99.90
1005;DHT22;491;53.480;10.174;2022-08-19T14:17:34;23.60;99.90
1005;DHT22;491;53.480;10.174;2022-08-19T14:20:02;23.70;99.90
1005;DHT22;491;53.480;10.174;2022-08-19T14:22:31;23.60;99.90
1005;DHT22;491;53.480;10.174;2022-08-19T14:24:57;23.60;99.90
1005;DHT22;491;53.480;10.174;2022-08-19T14:27:23;23.30;50.00
1005;DHT22;491;53.480;10.174;2022-08-19T14:29:51;23.10;99.90
1005;DHT22;491;53.480;10.174;2022-08-19T14:32:16;23.00;99.90
1005;DHT22;491;53.480;10.174;2022-08-19T14:34:42;22.80;99.90
1005;DHT22;491;53.480;10.174;2022-08-19T14:37:07;22.70;99.90
1005;DHT22;491;53.480;10.174;2022-08-19T14:39:34;22.50;99.90
1005;DHT22;491;53.480;10.174;2022-08-19T14:42:00;22.40;99.90
1005;DHT22;491;53.480;10.174;2022-08-19T14:44:26;22.30;99.90
1005;DHT22;491;53.480;10.174;2022-08-19T14:46:51;22.30;99.90
1005;DHT22;491;53.480;10.174;2022-08-19T14:49:17;22.30;99.90
1005;DHT22;491;53.480;10.174;2022-08-19T14:51:43;22.30;99.90
1005;DHT22;491;53.480;10.174;2022-08-19T14:54:10;22.40;99.90
1005;DHT22;491;53.480;10.174;2022-08-19T14:56:36;22.50;99.90
1005;DHT22;491;53.480;10.174;2022-08-19T14:59:02;22.50;99.90
1005;DHT22;491;53.480;10.174;2022-08-19T15:01:28;22.50;99.90
1005;DHT22;491;53.480;10.174;2022-08-19T15:03:54;22.50;99.90
1005;DHT22;491;53.480;10.174;2022-08-19T15:06:21;22.50;99.90
1005;DHT22;491;53.480;10.174;2022-08-19T15:08:48;22.50;99.90
1005;DHT22;491;53.480;10.174;2022-08-19T15:11:17;22.50;99.90
1005;DHT22;491;53.480;10.174;2022-08-19T15:13:45;22.50;99.90
1005;DHT22;491;53.480;10.174;2022-08-19T15:16:11;22.60;99.90
1005;DHT22;491;53.480;10.174;2022-08-19T15:18:43;22.80;99.90
1005;DHT22;491;53.480;10.174;2022-08-19T15:21:11;23.00;99.90
1005;DHT22;491;53.480;10.174;2022-08-19T15:23:43;23.10;99.90
1005;DHT22;491;53.480;10.174;2022-08-19T15:26:08;23.30;96.70
1005;DHT22;491;53.480;10.174;2022-08-19T15:28:35;23.50;63.10
1005;DHT22;491;53.480;10.174;2022-08-19T15:31:02;23.60;1.00
1005;DHT22;491;53.480;10.174;2022-08-19T15:33:31;23.70;13.50
1005;DHT22;491;53.480;10.174;2022-08-19T15:35:57;23.80;1.00
1005;DHT22;491;53.480;10.174;2022-08-19T15:38:23;23.80;1.00
1005;DHT22;491;53.480;10.174;2022-08-19T15:40:51;23.70;4.30
1005;DHT22;491;53.480;10.174;2022-08-19T15:43:18;23.60;1.00
1005;DHT22;491;53.480;10.174;2022-08-19T15:45:47;23.70;1.00
1005;DHT22;491;53.480;10.174;2022-08-19T15:48:12;23.60;56.70
1005;DHT22;491;53.480;10.174;2022-08-19T15:50:38;23.50;97.00
1005;DHT22;491;53.480;10.174;2022-08-19T15:53:09;23.50;40.20
1005;DHT22;491;53.480;10.174;2022-08-19T15:55:41;23.60;43.40
1005;DHT22;491;53.480;10.174;2022-08-19T15:58:11;23.50;1.00
1005;DHT22;491;53.480;10.174;2022-08-19T16:00:56;23.50;99.90
1005;DHT22;491;53.480;10.174;2022-08-19T16:03:40;23.30;39.10
1005;DHT22;491;53.480;10.174;2022-08-19T16:06:25;23.40;52.70
1005;DHT22;491;53.480;10.174;2022-08-19T16:09:00;23.40;26.00
1005;DHT22;491;53.480;10.174;2022-08-19T16:11:43;23.30;1.00
1005;DHT22;491;53.480;10.174;2022-08-19T16:14:09;23.30;1.00
1005;DHT22;491;53.480;10.174;2022-08-19T16:16:36;23.30;1.00